Hovedside
METAR-TAF:

METAR-TAF

Lufthavner :

Sundsvall-Härnösand, Sverige

Sundsvall Timrå lufthavn

breddegrad: 62-32N, lengdegrad: 017-27E, høyde over havet: 4 m

Gjeldene værobservasjon

Denne rapporten ble laget for 27 minutter siden, klokken 21:20 UTC
Flau vind
Temperatur 14°C
Luftfuktighet 100%
Trykk 1008 hPa
Sikt: 7000 m
dis

METAR: ESNN 182120Z AUTO 00000KT 7000 BR OVC012/// 14/14 Q1008

Tid: 23:47 (21:47 UTC)

Varsel

Denne rapporten ble laget for 7 timer og 17 minutter siden, klokken 14:30 UTC
Varsel gyldig fra 18. klokken 15 UTC til 18. klokken 18 UTC
Vind 8 kt fra Øst-sørøst
Sikt 10 km eller mer
Spredte skyer i en høyde av 1500 ft
Brutte skyer i en høyde av 2500 ft
lett regn
Midlertidig
fra 18. klokken 15 UTC til 18. klokken 18 UTC
Sikt: 4000 m
Brutte skyer i en høyde av 500 ft
regn, dis

TAF: ESNN 181430Z 1815/1818 12008KT 9999 -RA SCT015 BKN025 TEMPO 1815/1818 4000 RA BR BKN005

Værobservasjoner og værvarsel for over 4000 flyplasser (METAR- og TAF-rapporter).

Tilgjengelige stasjoner er representert av de røde og gule prikkene på kartet.

Hold musepekeren over prikken for å se navnet på stasjonen.

Klikk så for å se værobservasjoner og -varsler.

For å forandre kartet kan du klikke på den grønne knappen med svart kryss for å zoome inn, på den grønne knappen med strek for å zoome ut, eller på de grønne pilene for å se tilstøtende kart.


METAR-TAF: